sensor_id;sensor_type;location;lat;lon;timestamp;P1;durP1;ratioP1;P2;durP2;ratioP2
26391;SDS011;14572;43.120;1.178;2023-04-15T17:54:28;26.98;;;17.00;;
26391;SDS011;14572;43.120;1.178;2023-04-15T17:56:55;9.57;;;4.72;;
26391;SDS011;14572;43.120;1.178;2023-04-15T17:59:23;3.80;;;1.73;;
26391;SDS011;14572;43.120;1.178;2023-04-15T18:01:50;3.40;;;1.27;;
26391;SDS011;14572;43.120;1.178;2023-04-15T18:04:17;5.65;;;1.52;;
26391;SDS011;14572;43.120;1.178;2023-04-15T18:06:44;3.92;;;1.13;;
26391;SDS011;14572;43.120;1.178;2023-04-15T18:09:11;5.45;;;1.00;;
26391;SDS011;14572;43.120;1.178;2023-04-15T18:11:40;6.57;;;1.20;;
26391;SDS011;14572;43.120;1.178;2023-04-15T18:14:09;3.25;;;0.98;;
26391;SDS011;14572;43.120;1.178;2023-04-15T18:16:36;5.55;;;1.30;;
26391;SDS011;14572;43.120;1.178;2023-04-15T18:19:04;6.18;;;1.10;;
26391;SDS011;14572;43.120;1.178;2023-04-15T18:21:31;8.45;;;5.85;;
26391;SDS011;14572;43.120;1.178;2023-04-15T18:23:58;5.25;;;1.95;;
26391;SDS011;14572;43.120;1.178;2023-04-15T18:26:26;4.00;;;1.00;;
26391;SDS011;14572;43.120;1.178;2023-04-15T18:28:54;3.15;;;0.80;;
26391;SDS011;14572;43.120;1.178;2023-04-15T18:31:21;7.22;;;1.30;;
26391;SDS011;14572;43.120;1.178;2023-04-15T18:33:48;6.65;;;1.02;;
26391;SDS011;14572;43.120;1.178;2023-04-15T18:36:16;4.63;;;0.95;;
26391;SDS011;14572;43.120;1.178;2023-04-15T18:38:43;5.10;;;1.08;;
26391;SDS011;14572;43.120;1.178;2023-04-15T18:41:10;4.38;;;0.98;;
26391;SDS011;14572;43.120;1.178;2023-04-15T18:43:38;4.22;;;0.85;;
26391;SDS011;14572;43.120;1.178;2023-04-15T18:46:07;4.13;;;0.80;;
26391;SDS011;14572;43.120;1.178;2023-04-15T18:48:36;5.65;;;0.70;;
26391;SDS011;14572;43.120;1.178;2023-04-15T18:51:03;3.30;;;0.80;;
26391;SDS011;14572;43.120;1.178;2023-04-15T18:53:30;5.63;;;1.40;;
26391;SDS011;14572;43.120;1.178;2023-04-15T18:55:57;2.60;;;0.95;;
26391;SDS011;14572;43.120;1.178;2023-04-15T18:58:27;6.63;;;0.90;;
26391;SDS011;14572;43.120;1.178;2023-04-15T19:00:54;2.85;;;1.10;;
26391;SDS011;14572;43.120;1.178;2023-04-15T19:03:22;5.57;;;1.17;;
26391;SDS011;14572;43.120;1.178;2023-04-15T19:05:49;9.18;;;1.35;;
26391;SDS011;14572;43.120;1.178;2023-04-15T19:08:17;3.95;;;1.25;;
26391;SDS011;14572;43.120;1.178;2023-04-15T19:10:44;4.65;;;1.55;;
26391;SDS011;14572;43.120;1.178;2023-04-15T19:13:11;5.88;;;1.50;;
26391;SDS011;14572;43.120;1.178;2023-04-15T19:15:38;4.65;;;1.15;;
26391;SDS011;14572;43.120;1.178;2023-04-15T19:18:08;9.40;;;1.35;;
26391;SDS011;14572;43.120;1.178;2023-04-15T19:20:37;4.22;;;0.82;;
26391;SDS011;14572;43.120;1.178;2023-04-15T19:23:04;2.97;;;0.73;;
26391;SDS011;14572;43.120;1.178;2023-04-15T19:25:31;3.20;;;0.60;;
26391;SDS011;14572;43.120;1.178;2023-04-15T19:27:59;4.28;;;1.35;;
26391;SDS011;14572;43.120;1.178;2023-04-15T19:30:26;5.75;;;1.02;;
26391;SDS011;14572;43.120;1.178;2023-04-15T19:32:53;5.05;;;0.80;;
26391;SDS011;14572;43.120;1.178;2023-04-15T19:35:20;6.18;;;1.00;;
26391;SDS011;14572;43.120;1.178;2023-04-15T19:37:48;2.60;;;1.10;;
26391;SDS011;14572;43.120;1.178;2023-04-15T19:40:16;2.22;;;0.70;;
26391;SDS011;14572;43.120;1.178;2023-04-15T19:42:43;4.70;;;0.90;;
26391;SDS011;14572;43.120;1.178;2023-04-15T19:45:10;5.55;;;0.73;;
26391;SDS011;14572;43.120;1.178;2023-04-15T19:47:37;4.25;;;0.93;;
26391;SDS011;14572;43.120;1.178;2023-04-15T19:50:05;6.45;;;0.98;;
26391;SDS011;14572;43.120;1.178;2023-04-15T19:52:34;4.32;;;1.02;;
26391;SDS011;14572;43.120;1.178;2023-04-15T19:55:03;2.67;;;0.57;;
